• Join FlightAware (Why Join?)
  • Login
  • US Flag 
12:25AM EDT


 

Airport Tracker/Info


-or-


 

Live Flight TrackerFlight Track Log ✈ PDC2805 ✈ 04-Jul-2013 ✈ ZYHB / HRB - ZYJM / JMU

Flight Track Log - Related Links

Times and Time Zones

All times are in EDT time to prevent confusion due to time zone crossing. See the PDC2805 flight status page for this flight to view local times or setup timezone preferences in your user account.

Time Position Orientation Groundspeed Altitude Reporting Facility
EDT Latitude Longitude Course Direction KTS MPH feet Rate Location/Type
08:13PM 45.7791 126.7500 66° East  Level Estimated
08:14PM 45.8011 126.8216 66° East  Level Estimated
08:15PM 45.8232 126.8933 66° East  Level Estimated
08:16PM 45.8451 126.9650 66° East  Level Estimated
08:17PM 45.8671 127.0368 66° East  Level Estimated
08:18PM 45.8889 127.1087 66° East  Level Estimated
08:19PM 45.9108 127.1805 66° East  Level Estimated
08:20PM 45.9326 127.2525 66° East  Level Estimated
08:21PM 45.9543 127.3245 66° East  Level Estimated
08:22PM 45.9760 127.3966 67° East  Level Estimated
08:23PM 45.9977 127.4687 67° East  Level Estimated
08:24PM 46.0193 127.5409 67° East  Level Estimated
08:25PM 46.0408 127.6131 67° East  Level Estimated
08:26PM 46.0624 127.6854 67° East  Level Estimated
08:27PM 46.0838 127.7577 67° East  Level Estimated
08:28PM 46.1053 127.8301 67° East  Level Estimated
08:29PM 46.1266 127.9026 67° East  Level Estimated
08:30PM 46.1480 127.9751 67° East  Level Estimated
08:31PM 46.1693 128.0477 67° East  Level Estimated
08:32PM 46.1905 128.1203 67° East  Level Estimated
08:33PM 46.2117 128.1930 67° East  Level Estimated
08:34PM 46.2328 128.2657 67° East  Level Estimated
08:35PM 46.2540 128.3385 67° East  Level Estimated
08:36PM 46.2750 128.4114 67° East  Level Estimated
08:37PM 46.2960 128.4843 67° East  Level Estimated
08:38PM 46.3170 128.5573 67° East  Level Estimated
08:39PM 46.3379 128.6303 67° East  Level Estimated
08:40PM 46.3588 128.7034 67° East  Level Estimated
08:41PM 46.3796 128.7765 68° East  Level Estimated
08:42PM 46.4004 128.8497 68° East  Level Estimated
08:43PM 46.4211 128.9229 68° East  Level Estimated
08:44PM 46.4418 128.9962 68° East  Level Estimated
08:45PM 46.4625 129.0696 68° East  Level Estimated
08:46PM 46.4831 129.1430 68° East  Level Estimated
08:47PM 46.5036 129.2164 68° East  Level Estimated
08:48PM 46.5241 129.2900 68° East  Level Estimated
08:49PM 46.5446 129.3635 68° East  Level Estimated
08:50PM 46.5649 129.4372 68° East  Level Estimated
08:51PM 46.5853 129.5109 68° East  Level Estimated
08:52PM 46.6056 129.5846 68° East  Level Estimated
08:53PM 46.6259 129.6584 68° East  Level Estimated
08:54PM 46.6461 129.7323 68° East  Level Estimated
08:55PM 46.6663 129.8062 68° East  Level Estimated
08:56PM 46.6864 129.8801 68° East  Level Estimated
08:57PM 46.7065 129.9541 68° East  Level Estimated
08:58PM 46.7265 130.0282 68° East  Level Estimated
08:59PM 46.7465 130.1023 69° East  Level Estimated
09:00PM 46.7664 130.1765 69° East  Level Estimated
09:01PM 46.7863 130.2508 69° East  Level Estimated
09:02PM 46.8061 130.3250 69° East  Level Estimated
09:03PM 46.8259 130.3994 69° East  Level Estimated
09:04PM 46.8434 130.4654 69° East  Level Estimated
09:05PM 46.8434 130.4654 350° North  Level Estimated
09:06PM 46.8434 130.4654 350° North  Level Estimated
09:07PM 46.8434 130.4654 350° North  Level Estimated
09:08PM 46.8434 130.4654 350° North  Level Estimated
09:09PM 46.8434 130.4654 350° North  Level Estimated
09:10PM 46.8434 130.4654 350° North  Level Estimated